createdAt,value
2022-09-27T00:01:37.085Z,3.27
2022-09-27T00:04:06.271Z,2.80
2022-09-27T00:06:37.485Z,3.20
2022-09-27T00:09:08.629Z,3.20
2022-09-27T00:11:37.605Z,3.07
2022-09-27T00:14:06.036Z,2.77
2022-09-27T00:16:35.915Z,2.67
2022-09-27T00:19:07.897Z,2.80
2022-09-27T00:21:35.572Z,2.87
2022-09-27T00:24:03.683Z,3.00
2022-09-27T00:26:31.293Z,2.53
2022-09-27T00:28:59.392Z,2.87
2022-09-27T00:31:29.463Z,2.67
2022-09-27T00:33:59.108Z,3.40
2022-09-27T00:36:29.266Z,2.90
2022-09-27T00:38:57.313Z,2.67
2022-09-27T00:41:27.030Z,3.10
2022-09-27T00:43:56.300Z,3.00
2022-09-27T00:46:28.467Z,2.83
2022-09-27T00:49:05.597Z,2.83
2022-09-27T00:51:36.438Z,2.93
2022-09-27T00:54:04.569Z,3.70
2022-09-27T00:56:33.215Z,3.90
2022-09-27T00:59:03.564Z,4.73
2022-09-27T01:01:31.432Z,5.40
2022-09-27T01:04:02.124Z,5.60
2022-09-27T01:06:30.038Z,5.83
2022-09-27T01:08:59.477Z,5.60
2022-09-27T01:11:37.216Z,5.23
2022-09-27T01:14:26.674Z,5.07
2022-09-27T01:16:58.937Z,4.27
2022-09-27T01:20:08.882Z,4.13
2022-09-27T01:22:39.530Z,5.00
2022-09-27T01:25:24.320Z,4.87
2022-09-27T01:28:09.446Z,5.20
2022-09-27T01:30:47.214Z,5.70
2022-09-27T01:33:32.385Z,5.87
2022-09-27T01:36:17.025Z,6.07
2022-09-27T01:38:53.237Z,5.87
2022-09-27T01:41:29.041Z,6.57
2022-09-27T01:44:00.688Z,7.27
2022-09-27T01:46:33.319Z,7.77
2022-09-27T01:49:01.563Z,7.60
2022-09-27T01:51:31.639Z,8.33
2022-09-27T01:54:02.600Z,8.67
2022-09-27T01:56:34.321Z,8.17
2022-09-27T01:59:07.162Z,8.30
2022-09-27T02:01:37.542Z,7.87
2022-09-27T02:04:06.566Z,7.93
2022-09-27T02:06:36.831Z,7.90
2022-09-27T02:09:07.254Z,7.20
2022-09-27T02:11:35.596Z,6.57
2022-09-27T02:14:05.585Z,5.83
2022-09-27T02:16:40.721Z,4.80
2022-09-27T02:19:11.157Z,5.37
2022-09-27T02:21:43.828Z,4.60
2022-09-27T02:24:14.276Z,4.20
2022-09-27T02:26:44.510Z,4.53
2022-09-27T02:29:15.958Z,4.77
2022-09-27T02:31:45.104Z,4.43
2022-09-27T02:34:15.385Z,5.53
2022-09-27T02:36:43.236Z,5.83
2022-09-27T02:39:11.474Z,6.83
2022-09-27T02:41:39.138Z,7.60
2022-09-27T02:44:10.089Z,8.90
2022-09-27T02:46:48.522Z,9.20
2022-09-27T02:49:27.674Z,11.20
2022-09-27T02:52:01.551Z,11.33
2022-09-27T02:54:37.441Z,10.97
2022-09-27T02:57:19.427Z,10.17
2022-09-27T02:59:51.573Z,11.40
2022-09-27T03:02:27.105Z,10.17
2022-09-27T03:04:57.057Z,10.10
2022-09-27T03:07:25.057Z,9.73
2022-09-27T03:09:55.848Z,7.57
2022-09-27T03:12:26.090Z,7.03
2022-09-27T03:14:54.939Z,6.60
2022-09-27T03:17:23.920Z,5.70
2022-09-27T03:19:51.569Z,5.20
2022-09-27T03:22:19.458Z,4.67
2022-09-27T03:24:47.086Z,6.03
2022-09-27T03:27:14.956Z,5.27
2022-09-27T03:29:42.489Z,6.93
2022-09-27T03:32:10.667Z,6.03
2022-09-27T03:34:39.658Z,7.57
2022-09-27T03:37:08.278Z,8.47
2022-09-27T03:39:35.843Z,6.50
2022-09-27T03:42:03.473Z,7.30
2022-09-27T03:44:32.736Z,6.50
2022-09-27T03:47:00.613Z,4.87
2022-09-27T03:49:28.182Z,4.07
2022-09-27T03:51:57.133Z,3.53
2022-09-27T03:54:25.021Z,1.83
2022-09-27T03:56:52.757Z,2.40
2022-09-27T03:59:22.572Z,2.13
2022-09-27T04:01:50.284Z,1.80
2022-09-27T04:04:18.747Z,1.87
2022-09-27T04:06:46.542Z,2.00
2022-09-27T04:09:15.583Z,2.20
2022-09-27T04:11:43.230Z,2.17
2022-09-27T04:14:12.817Z,2.20
2022-09-27T04:16:41.220Z,2.17
2022-09-27T04:19:09.599Z,2.50
2022-09-27T04:21:37.203Z,2.53
2022-09-27T04:24:06.574Z,2.50
2022-09-27T04:26:35.831Z,2.63
2022-09-27T04:29:03.964Z,2.47
2022-09-27T04:31:31.730Z,2.47
2022-09-27T04:33:59.865Z,3.03
2022-09-27T04:36:26.946Z,2.40
2022-09-27T04:38:54.982Z,2.33
2022-09-27T04:41:23.267Z,2.50
2022-09-27T04:43:58.086Z,2.57
2022-09-27T04:46:27.292Z,2.70
2022-09-27T04:48:55.127Z,2.47
2022-09-27T04:51:22.732Z,1.90
2022-09-27T04:53:50.284Z,2.20
2022-09-27T04:56:18.130Z,1.97
2022-09-27T04:58:45.835Z,2.07
2022-09-27T05:01:14.868Z,2.00
2022-09-27T05:03:42.550Z,2.33
2022-09-27T05:06:10.596Z,2.07
2022-09-27T05:08:38.310Z,1.90
2022-09-27T05:11:06.318Z,2.07
2022-09-27T05:13:34.325Z,2.20
2022-09-27T05:16:04.086Z,2.53
2022-09-27T05:18:33.443Z,2.00
2022-09-27T05:21:01.063Z,2.00
2022-09-27T05:23:28.626Z,1.73
2022-09-27T05:25:56.544Z,1.80
2022-09-27T05:28:24.922Z,2.10
2022-09-27T05:30:52.706Z,1.40
2022-09-27T05:33:20.312Z,1.90
2022-09-27T05:35:54.540Z,1.77
2022-09-27T05:38:22.200Z,1.90
2022-09-27T05:40:51.076Z,1.60
2022-09-27T05:43:19.917Z,1.77
2022-09-27T05:45:47.614Z,1.70
2022-09-27T05:48:15.369Z,1.67
2022-09-27T05:50:43.256Z,1.63
2022-09-27T05:53:13.226Z,1.20
2022-09-27T05:55:41.115Z,1.90
2022-09-27T05:58:10.818Z,1.30
2022-09-27T06:00:39.345Z,1.17
2022-09-27T06:03:08.016Z,1.30
2022-09-27T06:05:37.295Z,1.30
2022-09-27T06:08:06.387Z,1.33
2022-09-27T06:10:36.005Z,1.40
2022-09-27T06:13:05.036Z,1.17
2022-09-27T06:15:34.442Z,1.90
2022-09-27T06:18:04.959Z,1.30
2022-09-27T06:20:32.630Z,1.60
2022-09-27T06:23:05.820Z,1.27
2022-09-27T06:25:34.781Z,1.50
2022-09-27T06:28:02.750Z,1.30
2022-09-27T06:30:31.131Z,1.03
2022-09-27T06:33:00.328Z,1.20
2022-09-27T06:35:28.616Z,1.87
2022-09-27T06:37:56.684Z,1.17
2022-09-27T06:40:27.045Z,1.40
2022-09-27T06:42:58.206Z,1.07
2022-09-27T06:45:27.908Z,1.40
2022-09-27T06:47:56.065Z,1.50
2022-09-27T06:50:23.725Z,1.30
2022-09-27T06:52:51.690Z,1.40
2022-09-27T06:55:19.221Z,1.43
2022-09-27T06:58:04.255Z,1.20
2022-09-27T07:00:33.369Z,1.40
2022-09-27T07:03:01.875Z,1.40
2022-09-27T07:05:30.058Z,1.33
2022-09-27T07:07:58.652Z,1.27
2022-09-27T07:10:27.061Z,1.40
2022-09-27T07:12:55.066Z,1.40
2022-09-27T07:15:23.293Z,1.30
2022-09-27T07:17:59.198Z,1.30
2022-09-27T07:20:27.143Z,2.43
2022-09-27T07:22:55.091Z,1.10
2022-09-27T07:25:22.969Z,1.20
2022-09-27T07:27:52.491Z,1.30
2022-09-27T07:30:21.018Z,1.50
2022-09-27T07:32:48.700Z,1.10
2022-09-27T07:35:17.697Z,1.27
2022-09-27T07:37:45.385Z,1.17
2022-09-27T07:40:13.080Z,1.13
2022-09-27T07:42:41.127Z,0.90
2022-09-27T07:45:10.240Z,0.80
2022-09-27T07:47:39.414Z,1.00
2022-09-27T07:50:08.176Z,0.90
2022-09-27T07:52:42.022Z,1.00
2022-09-27T07:55:10.750Z,0.90
2022-09-27T07:57:38.469Z,1.00
2022-09-27T08:00:08.335Z,1.03
2022-09-27T08:02:36.006Z,0.70
2022-09-27T08:05:04.885Z,1.50
2022-09-27T08:07:32.964Z,1.03
2022-09-27T08:10:01.870Z,1.73
2022-09-27T08:12:29.436Z,0.90
2022-09-27T08:15:01.227Z,0.93
2022-09-27T08:17:28.964Z,1.20
2022-09-27T08:19:56.910Z,0.90
2022-09-27T08:22:24.805Z,1.10
2022-09-27T08:24:52.347Z,1.43
2022-09-27T08:27:21.402Z,1.10
2022-09-27T08:29:49.615Z,1.70
2022-09-27T08:32:22.797Z,1.73
2022-09-27T08:34:51.104Z,1.10
2022-09-27T08:37:18.676Z,1.00
2022-09-27T08:39:48.076Z,1.20
2022-09-27T08:42:23.966Z,1.30
2022-09-27T08:44:59.736Z,1.20
2022-09-27T08:47:34.463Z,1.07
2022-09-27T08:50:04.759Z,1.00
2022-09-27T08:52:34.523Z,1.10
2022-09-27T08:55:05.844Z,1.10
2022-09-27T08:57:34.831Z,1.20
2022-09-27T09:00:06.110Z,1.27
2022-09-27T09:02:33.924Z,1.10
2022-09-27T09:05:04.641Z,1.37
2022-09-27T09:07:43.630Z,1.13
2022-09-27T09:10:38.852Z,1.40
2022-09-27T09:13:14.597Z,1.67
2022-09-27T09:15:58.380Z,1.43
2022-09-27T09:18:34.936Z,1.20
2022-09-27T09:21:08.363Z,1.50
2022-09-27T09:24:00.943Z,1.63
2022-09-27T09:26:33.952Z,1.83
2022-09-27T09:29:18.793Z,1.93
2022-09-27T09:31:51.736Z,1.43
2022-09-27T09:34:21.716Z,1.67
2022-09-27T09:36:56.563Z,1.60
2022-09-27T09:39:26.126Z,1.63
2022-09-27T09:42:08.240Z,1.83
2022-09-27T09:44:46.946Z,1.70
2022-09-27T09:47:29.458Z,2.17
2022-09-27T09:49:59.730Z,2.00
2022-09-27T09:52:33.796Z,1.60
2022-09-27T09:55:05.032Z,1.60
2022-09-27T09:57:36.756Z,1.83
2022-09-27T10:00:08.377Z,1.50
2022-09-27T10:02:38.404Z,1.60
2022-09-27T10:05:08.283Z,1.80
2022-09-27T10:07:38.213Z,1.50
2022-09-27T10:10:07.663Z,1.40
2022-09-27T10:12:36.408Z,1.70
2022-09-27T10:15:06.530Z,1.80
2022-09-27T10:17:37.284Z,1.57
2022-09-27T10:20:07.062Z,1.67
2022-09-27T10:22:37.681Z,1.63
2022-09-27T10:25:11.266Z,1.50
2022-09-27T10:27:41.854Z,1.40
2022-09-27T10:30:23.752Z,1.00
2022-09-27T10:32:53.090Z,1.53
2022-09-27T10:35:23.891Z,1.43
2022-09-27T10:37:52.535Z,1.30
2022-09-27T10:40:29.529Z,1.40
2022-09-27T10:42:57.193Z,1.43
2022-09-27T10:45:34.560Z,1.60
2022-09-27T10:48:03.108Z,1.57
2022-09-27T10:50:50.154Z,1.40
2022-09-27T10:53:21.772Z,1.60
2022-09-27T10:55:51.709Z,1.80
2022-09-27T10:58:20.889Z,1.90
2022-09-27T11:00:57.917Z,2.10
2022-09-27T11:03:28.833Z,1.90
2022-09-27T11:05:56.513Z,2.63
2022-09-27T11:08:29.953Z,2.10
2022-09-27T11:11:13.733Z,2.17
2022-09-27T11:13:41.802Z,2.57
2022-09-27T11:16:21.087Z,2.53
2022-09-27T11:18:56.606Z,2.57
2022-09-27T11:21:33.687Z,2.77
2022-09-27T11:24:12.673Z,2.50
2022-09-27T11:26:46.097Z,2.67
2022-09-27T11:29:26.514Z,2.30
2022-09-27T11:32:07.440Z,2.30
2022-09-27T11:34:53.911Z,2.30
2022-09-27T11:37:29.227Z,2.73
2022-09-27T11:40:06.529Z,2.27
2022-09-27T11:42:51.553Z,2.50
2022-09-27T11:45:41.083Z,2.40
2022-09-27T11:48:28.333Z,2.10
2022-09-27T11:51:08.035Z,2.20
2022-09-27T11:53:44.886Z,2.27
2022-09-27T11:56:21.288Z,2.00
2022-09-27T11:58:58.741Z,2.20
2022-09-27T12:01:34.680Z,2.20
2022-09-27T12:04:16.578Z,2.10
2022-09-27T12:06:49.907Z,2.10
2022-09-27T12:09:19.964Z,2.27
2022-09-27T12:11:49.695Z,2.10
2022-09-27T12:14:23.513Z,1.97
2022-09-27T12:16:54.960Z,1.87
2022-09-27T12:19:25.620Z,1.70
2022-09-27T12:21:53.156Z,1.90
2022-09-27T12:24:22.662Z,1.87
2022-09-27T12:26:52.093Z,1.53
2022-09-27T12:29:23.339Z,1.83
2022-09-27T12:31:57.283Z,1.87
2022-09-27T12:34:31.958Z,3.37
2022-09-27T12:37:04.442Z,1.70
2022-09-27T12:39:42.939Z,1.93
2022-09-27T12:42:16.108Z,1.83
2022-09-27T12:44:47.526Z,1.90
2022-09-27T12:47:30.869Z,1.77
2022-09-27T12:50:05.045Z,1.10
2022-09-27T12:52:35.197Z,1.73
2022-09-27T12:55:44.781Z,1.40
2022-09-27T12:58:23.504Z,1.23
2022-09-27T13:00:56.174Z,1.17
2022-09-27T13:03:52.329Z,1.10
2022-09-27T13:06:33.688Z,1.20
2022-09-27T13:09:26.321Z,1.20
2022-09-27T13:12:03.020Z,1.30
2022-09-27T13:14:34.386Z,1.17
2022-09-27T13:17:01.942Z,1.50
2022-09-27T13:19:42.566Z,1.40
2022-09-27T13:22:37.127Z,1.50
2022-09-27T13:25:15.561Z,1.37
2022-09-27T13:27:43.670Z,1.40
2022-09-27T13:30:49.323Z,1.40
2022-09-27T13:33:47.163Z,1.40
2022-09-27T13:36:28.274Z,1.30
2022-09-27T13:39:19.734Z,0.90
2022-09-27T13:42:04.622Z,1.00
2022-09-27T13:44:40.486Z,1.00
2022-09-27T13:47:26.489Z,0.90
2022-09-27T13:49:58.255Z,1.00
2022-09-27T13:52:30.041Z,0.90
2022-09-27T13:55:00.296Z,1.40
2022-09-27T13:57:48.508Z,1.20
2022-09-27T14:00:18.621Z,1.00
2022-09-27T14:02:52.852Z,0.87
2022-09-27T14:05:25.299Z,0.80
2022-09-27T14:07:53.170Z,0.80
2022-09-27T14:10:24.266Z,1.00
2022-09-27T14:12:53.184Z,1.00
2022-09-27T14:15:25.061Z,0.80
2022-09-27T14:17:52.956Z,1.00
2022-09-27T14:20:34.069Z,1.20
2022-09-27T14:23:01.944Z,1.03
2022-09-27T14:25:31.011Z,0.90
2022-09-27T14:28:00.135Z,1.00
2022-09-27T14:30:30.262Z,1.10
2022-09-27T14:33:00.552Z,0.87
2022-09-27T14:35:46.955Z,1.13
2022-09-27T14:38:36.438Z,0.80
2022-09-27T14:41:07.884Z,0.90
2022-09-27T14:43:36.878Z,0.70
2022-09-27T14:46:06.727Z,0.87
2022-09-27T14:48:35.896Z,0.87
2022-09-27T14:51:10.620Z,0.83
2022-09-27T14:53:45.428Z,0.90
2022-09-27T14:56:17.915Z,0.90
2022-09-27T14:58:47.985Z,0.70
2022-09-27T15:01:16.829Z,1.10
2022-09-27T15:03:46.495Z,1.07
2022-09-27T15:06:14.178Z,0.87
2022-09-27T15:08:43.048Z,1.30
2022-09-27T15:11:10.736Z,1.00
2022-09-27T15:13:42.053Z,1.10
2022-09-27T15:16:10.523Z,1.30
2022-09-27T15:18:42.804Z,1.00
2022-09-27T15:21:11.897Z,1.10
2022-09-27T15:23:41.486Z,1.10
2022-09-27T15:26:12.212Z,1.97
2022-09-27T15:28:44.286Z,1.80
2022-09-27T15:31:11.995Z,1.60
2022-09-27T15:33:39.549Z,1.63
2022-09-27T15:36:08.905Z,1.40
2022-09-27T15:38:39.181Z,2.47
2022-09-27T15:41:16.481Z,1.83
2022-09-27T15:43:47.287Z,1.47
2022-09-27T15:46:35.539Z,1.37
2022-09-27T15:49:33.660Z,1.60
2022-09-27T15:52:02.389Z,1.70
2022-09-27T15:54:33.215Z,1.37
2022-09-27T15:57:04.304Z,2.00
2022-09-27T15:59:34.958Z,1.67
2022-09-27T16:02:07.767Z,1.70
2022-09-27T16:04:35.588Z,1.60
2022-09-27T16:07:05.374Z,1.80
2022-09-27T16:09:33.081Z,1.60
2022-09-27T16:12:00.689Z,2.00
2022-09-27T16:14:28.186Z,1.70
2022-09-27T16:17:00.503Z,1.97
2022-09-27T16:19:28.046Z,1.80
2022-09-27T16:21:55.657Z,1.87
2022-09-27T16:24:25.092Z,1.67
2022-09-27T16:26:52.567Z,1.90
2022-09-27T16:29:20.155Z,1.77
2022-09-27T16:31:48.026Z,1.70
2022-09-27T16:34:17.275Z,1.60
2022-09-27T16:36:44.822Z,1.80
2022-09-27T16:39:14.457Z,1.57
2022-09-27T16:41:42.281Z,2.10
2022-09-27T16:44:12.645Z,1.57
2022-09-27T16:46:41.264Z,1.60
2022-09-27T16:49:29.448Z,1.73
2022-09-27T16:52:00.495Z,1.50
2022-09-27T16:54:29.173Z,1.70
2022-09-27T16:56:57.077Z,1.57
2022-09-27T16:59:25.555Z,1.77
2022-09-27T17:01:57.382Z,1.23
2022-09-27T17:04:25.322Z,1.27
2022-09-27T17:06:52.987Z,1.20
2022-09-27T17:09:22.032Z,1.13
2022-09-27T17:11:49.791Z,1.40
2022-09-27T17:14:18.138Z,1.37
2022-09-27T17:16:46.182Z,1.40
2022-09-27T17:19:13.969Z,1.50
2022-09-27T17:21:43.415Z,2.07
2022-09-27T17:24:11.341Z,2.20
2022-09-27T17:26:40.381Z,2.27
2022-09-27T17:29:07.968Z,1.53
2022-09-27T17:31:35.591Z,1.77
2022-09-27T17:34:03.422Z,1.73
2022-09-27T17:36:34.503Z,2.57
2022-09-27T17:39:03.309Z,1.83
2022-09-27T17:41:39.559Z,1.43
2022-09-27T17:44:11.107Z,2.57
2022-09-27T17:46:38.858Z,1.43
2022-09-27T17:49:23.988Z,1.60
2022-09-27T17:51:53.427Z,1.60
2022-09-27T17:54:23.453Z,1.43
2022-09-27T17:56:51.686Z,1.50
2022-09-27T17:59:20.709Z,1.73
2022-09-27T18:01:48.620Z,1.60
2022-09-27T18:04:18.089Z,1.40
2022-09-27T18:06:46.994Z,1.30
2022-09-27T18:09:15.936Z,1.30
2022-09-27T18:11:44.094Z,1.30
2022-09-27T18:14:12.232Z,1.70
2022-09-27T18:16:42.834Z,2.00
2022-09-27T18:19:17.662Z,1.77
2022-09-27T18:21:45.321Z,1.87
2022-09-27T18:24:14.066Z,1.93
2022-09-27T18:26:41.749Z,2.10
2022-09-27T18:29:11.984Z,2.10
2022-09-27T18:31:48.226Z,1.70
2022-09-27T18:34:16.830Z,2.33
2022-09-27T18:36:44.754Z,2.37
2022-09-27T18:39:14.826Z,2.30
2022-09-27T18:41:42.471Z,2.30
2022-09-27T18:44:13.470Z,2.10
2022-09-27T18:46:42.831Z,2.10
2022-09-27T18:49:12.189Z,2.40
2022-09-27T18:51:43.449Z,2.33
2022-09-27T18:54:16.146Z,2.70
2022-09-27T18:56:43.752Z,2.10
2022-09-27T18:59:11.601Z,2.57
2022-09-27T19:01:44.888Z,2.57
2022-09-27T19:04:14.171Z,2.63
2022-09-27T19:06:41.854Z,2.13
2022-09-27T19:09:11.317Z,2.50
2022-09-27T19:11:39.056Z,2.60
2022-09-27T19:14:07.754Z,2.95
2022-09-27T19:16:35.360Z,2.43
2022-09-27T19:19:04.313Z,2.40
2022-09-27T19:21:31.844Z,3.03
2022-09-27T19:23:59.813Z,2.93
2022-09-27T19:26:28.175Z,2.13
2022-09-27T19:28:55.899Z,2.97
2022-09-27T19:31:24.884Z,3.00
2022-09-27T19:33:57.645Z,2.80
2022-09-27T19:36:29.433Z,2.93
2022-09-27T19:38:58.384Z,2.80
2022-09-27T19:41:26.463Z,2.70
2022-09-27T19:43:54.544Z,3.00
2022-09-27T19:46:22.916Z,3.43
2022-09-27T19:48:51.384Z,3.00
2022-09-27T19:51:20.316Z,3.10
2022-09-27T19:53:50.266Z,3.07
2022-09-27T19:56:18.330Z,3.70
2022-09-27T19:58:46.468Z,3.40
2022-09-27T20:01:16.297Z,3.60
2022-09-27T20:03:44.928Z,4.10
2022-09-27T20:06:14.543Z,3.90
2022-09-27T20:08:42.729Z,4.00
2022-09-27T20:11:13.638Z,4.03
2022-09-27T20:13:41.708Z,4.73
2022-09-27T20:16:12.573Z,4.87
2022-09-27T20:18:42.693Z,4.87
2022-09-27T20:21:10.747Z,5.13
2022-09-27T20:23:38.591Z,5.73
2022-09-27T20:26:08.019Z,5.40
2022-09-27T20:28:37.058Z,5.60
2022-09-27T20:31:05.895Z,6.07
2022-09-27T20:33:42.338Z,5.67
2022-09-27T20:36:10.302Z,5.80
2022-09-27T20:38:37.802Z,6.40
2022-09-27T20:41:06.416Z,6.33
2022-09-27T20:43:34.894Z,6.77
2022-09-27T20:46:04.129Z,6.70
2022-09-27T20:48:31.930Z,6.20
2022-09-27T20:51:04.249Z,5.77
2022-09-27T20:53:32.678Z,5.40
2022-09-27T20:56:02.615Z,6.30
2022-09-27T20:58:30.971Z,6.00
2022-09-27T21:01:04.620Z,5.37
2022-09-27T21:03:34.329Z,7.43
2022-09-27T21:06:02.276Z,7.77
2022-09-27T21:08:30.744Z,7.10
2022-09-27T21:11:05.428Z,5.83
2022-09-27T21:13:32.967Z,3.63
2022-09-27T21:16:01.728Z,3.73
2022-09-27T21:18:29.296Z,3.03
2022-09-27T21:21:02.934Z,2.33
2022-09-27T21:23:30.733Z,2.50
2022-09-27T21:26:03.289Z,2.27
2022-09-27T21:28:35.304Z,2.17
2022-09-27T21:31:04.665Z,2.50
2022-09-27T21:33:32.769Z,2.60
2022-09-27T21:36:02.051Z,2.33
2022-09-27T21:38:30.838Z,2.37
2022-09-27T21:40:59.357Z,2.43
2022-09-27T21:43:28.423Z,2.40
2022-09-27T21:46:02.126Z,2.47
2022-09-27T21:48:31.302Z,2.50
2022-09-27T21:51:08.154Z,2.47
2022-09-27T21:53:36.433Z,2.50
2022-09-27T21:56:04.398Z,2.67
2022-09-27T21:58:34.153Z,2.53
2022-09-27T22:01:08.061Z,2.50
2022-09-27T22:03:36.828Z,2.60
2022-09-27T22:06:06.436Z,2.90
2022-09-27T22:08:34.069Z,2.90
2022-09-27T22:11:01.846Z,2.90
2022-09-27T22:13:29.446Z,2.60
2022-09-27T22:15:57.209Z,2.60
2022-09-27T22:18:24.804Z,2.47
2022-09-27T22:20:52.311Z,1.80
2022-09-27T22:23:21.144Z,1.87
2022-09-27T22:25:48.769Z,2.00
2022-09-27T22:28:16.256Z,1.63
2022-09-27T22:30:43.830Z,1.63
2022-09-27T22:33:11.418Z,1.87
2022-09-27T22:35:46.533Z,1.87
2022-09-27T22:38:14.164Z,1.60
2022-09-27T22:40:43.308Z,1.73
2022-09-27T22:43:12.073Z,1.97
2022-09-27T22:45:40.286Z,1.80
2022-09-27T22:48:07.912Z,2.17
2022-09-27T22:50:35.670Z,1.90
2022-09-27T22:53:03.226Z,2.40
2022-09-27T22:55:30.826Z,2.20
2022-09-27T22:57:59.721Z,2.30
2022-09-27T23:00:27.754Z,1.70
2022-09-27T23:02:55.513Z,2.53
2022-09-27T23:05:23.682Z,1.97
2022-09-27T23:07:52.376Z,1.80
2022-09-27T23:10:20.182Z,1.80
2022-09-27T23:12:48.114Z,1.93
2022-09-27T23:15:19.057Z,1.93
2022-09-27T23:17:46.616Z,2.13
2022-09-27T23:20:14.359Z,1.60
2022-09-27T23:22:41.833Z,1.40
2022-09-27T23:25:10.373Z,1.53
2022-09-27T23:27:45.120Z,1.70
2022-09-27T23:30:13.507Z,1.83
2022-09-27T23:32:44.702Z,2.13
2022-09-27T23:35:12.333Z,1.87
2022-09-27T23:37:40.054Z,2.20
2022-09-27T23:40:08.996Z,2.20
2022-09-27T23:42:36.724Z,2.20
2022-09-27T23:45:04.485Z,2.10
2022-09-27T23:47:32.782Z,1.80
2022-09-27T23:50:01.914Z,1.80
2022-09-27T23:52:29.447Z,2.00
2022-09-27T23:54:56.994Z,1.87
2022-09-27T23:57:24.496Z,1.73
2022-09-27T23:59:52.030Z,2.03
